sensor_id;sensor_type;location;lat;lon;timestamp;P1;durP1;ratioP1;P2;durP2;ratioP2
11173;SDS011;5643;50.856;12.088;2022-07-23T00:00:27;2.47;;;2.30;;
11173;SDS011;5643;50.856;12.088;2022-07-23T00:02:55;2.60;;;2.40;;
11173;SDS011;5643;50.856;12.088;2022-07-23T00:05:22;2.90;;;2.70;;
11173;SDS011;5643;50.856;12.088;2022-07-23T00:07:50;2.83;;;2.63;;
11173;SDS011;5643;50.856;12.088;2022-07-23T00:10:19;3.00;;;2.80;;
11173;SDS011;5643;50.856;12.088;2022-07-23T00:12:46;2.93;;;2.73;;
11173;SDS011;5643;50.856;12.088;2022-07-23T00:15:14;3.20;;;3.00;;
11173;SDS011;5643;50.856;12.088;2022-07-23T00:17:41;3.60;;;3.30;;
11173;SDS011;5643;50.856;12.088;2022-07-23T00:20:09;3.13;;;2.93;;
11173;SDS011;5643;50.856;12.088;2022-07-23T00:22:45;3.27;;;2.97;;
11173;SDS011;5643;50.856;12.088;2022-07-23T00:25:12;3.10;;;2.90;;
11173;SDS011;5643;50.856;12.088;2022-07-23T00:27:41;2.60;;;2.50;;
11173;SDS011;5643;50.856;12.088;2022-07-23T00:30:10;2.50;;;2.40;;
11173;SDS011;5643;50.856;12.088;2022-07-23T00:32:46;3.03;;;2.83;;
11173;SDS011;5643;50.856;12.088;2022-07-23T00:35:14;2.80;;;2.70;;
11173;SDS011;5643;50.856;12.088;2022-07-23T00:37:42;2.70;;;2.60;;
11173;SDS011;5643;50.856;12.088;2022-07-23T00:40:10;2.57;;;2.40;;
11173;SDS011;5643;50.856;12.088;2022-07-23T00:42:38;2.47;;;2.37;;
11173;SDS011;5643;50.856;12.088;2022-07-23T00:45:08;2.30;;;2.20;;
11173;SDS011;5643;50.856;12.088;2022-07-23T00:47:36;2.40;;;2.30;;
11173;SDS011;5643;50.856;12.088;2022-07-23T00:50:05;2.67;;;2.57;;
11173;SDS011;5643;50.856;12.088;2022-07-23T00:52:35;3.10;;;2.90;;
11173;SDS011;5643;50.856;12.088;2022-07-23T00:55:04;3.47;;;3.20;;
11173;SDS011;5643;50.856;12.088;2022-07-23T00:57:32;3.00;;;2.80;;
11173;SDS011;5643;50.856;12.088;2022-07-23T01:00:00;2.97;;;2.77;;
11173;SDS011;5643;50.856;12.088;2022-07-23T01:02:29;3.20;;;3.00;;
11173;SDS011;5643;50.856;12.088;2022-07-23T01:04:57;2.70;;;2.60;;
11173;SDS011;5643;50.856;12.088;2022-07-23T01:07:24;2.53;;;2.43;;
11173;SDS011;5643;50.856;12.088;2022-07-23T01:09:52;2.57;;;2.40;;
11173;SDS011;5643;50.856;12.088;2022-07-23T01:12:22;2.70;;;2.60;;
11173;SDS011;5643;50.856;12.088;2022-07-23T01:14:53;2.57;;;2.47;;
11173;SDS011;5643;50.856;12.088;2022-07-23T01:17:24;2.57;;;2.47;;
11173;SDS011;5643;50.856;12.088;2022-07-23T01:19:53;2.40;;;2.30;;
11173;SDS011;5643;50.856;12.088;2022-07-23T01:22:21;2.50;;;2.40;;
11173;SDS011;5643;50.856;12.088;2022-07-23T01:24:50;2.83;;;2.63;;
11173;SDS011;5643;50.856;12.088;2022-07-23T01:27:18;3.10;;;2.90;;
11173;SDS011;5643;50.856;12.088;2022-07-23T01:29:45;2.77;;;2.67;;
11173;SDS011;5643;50.856;12.088;2022-07-23T01:32:13;2.80;;;2.60;;
11173;SDS011;5643;50.856;12.088;2022-07-23T01:34:40;2.43;;;2.33;;
11173;SDS011;5643;50.856;12.088;2022-07-23T01:37:08;2.60;;;2.50;;
11173;SDS011;5643;50.856;12.088;2022-07-23T01:39:36;2.50;;;2.40;;
11173;SDS011;5643;50.856;12.088;2022-07-23T01:42:05;3.00;;;2.80;;
11173;SDS011;5643;50.856;12.088;2022-07-23T01:44:32;3.07;;;2.87;;
11173;SDS011;5643;50.856;12.088;2022-07-23T01:47:00;3.30;;;3.10;;
11173;SDS011;5643;50.856;12.088;2022-07-23T01:49:27;3.60;;;3.40;;
11173;SDS011;5643;50.856;12.088;2022-07-23T01:51:58;3.50;;;3.30;;
11173;SDS011;5643;50.856;12.088;2022-07-23T01:54:29;4.00;;;3.70;;
11173;SDS011;5643;50.856;12.088;2022-07-23T01:56:57;3.90;;;3.70;;
11173;SDS011;5643;50.856;12.088;2022-07-23T01:59:28;4.67;;;4.27;;
11173;SDS011;5643;50.856;12.088;2022-07-23T02:01:55;4.00;;;3.70;;
11173;SDS011;5643;50.856;12.088;2022-07-23T02:04:23;3.40;;;3.20;;
11173;SDS011;5643;50.856;12.088;2022-07-23T02:06:52;3.70;;;3.40;;
11173;SDS011;5643;50.856;12.088;2022-07-23T02:09:20;4.50;;;4.13;;
11173;SDS011;5643;50.856;12.088;2022-07-23T02:11:48;3.50;;;3.30;;
11173;SDS011;5643;50.856;12.088;2022-07-23T02:14:15;3.10;;;2.93;;
11173;SDS011;5643;50.856;12.088;2022-07-23T02:16:47;3.00;;;2.80;;
11173;SDS011;5643;50.856;12.088;2022-07-23T02:19:14;4.30;;;4.00;;
11173;SDS011;5643;50.856;12.088;2022-07-23T02:21:42;4.00;;;3.70;;
11173;SDS011;5643;50.856;12.088;2022-07-23T02:24:09;4.10;;;3.80;;
11173;SDS011;5643;50.856;12.088;2022-07-23T02:26:38;4.70;;;4.30;;
11173;SDS011;5643;50.856;12.088;2022-07-23T02:29:05;4.37;;;4.07;;
11173;SDS011;5643;50.856;12.088;2022-07-23T02:31:33;4.33;;;4.03;;
11173;SDS011;5643;50.856;12.088;2022-07-23T02:34:02;3.97;;;3.67;;
11173;SDS011;5643;50.856;12.088;2022-07-23T02:36:30;4.57;;;4.27;;
11173;SDS011;5643;50.856;12.088;2022-07-23T02:38:58;4.90;;;4.50;;
11173;SDS011;5643;50.856;12.088;2022-07-23T02:41:26;4.80;;;4.47;;
11173;SDS011;5643;50.856;12.088;2022-07-23T02:43:53;5.07;;;4.67;;
11173;SDS011;5643;50.856;12.088;2022-07-23T02:46:21;5.83;;;5.33;;
11173;SDS011;5643;50.856;12.088;2022-07-23T02:48:48;5.83;;;5.33;;
11173;SDS011;5643;50.856;12.088;2022-07-23T02:51:17;5.63;;;5.13;;
11173;SDS011;5643;50.856;12.088;2022-07-23T02:53:45;5.90;;;5.40;;
11173;SDS011;5643;50.856;12.088;2022-07-23T02:56:12;5.83;;;5.23;;
11173;SDS011;5643;50.856;12.088;2022-07-23T02:58:40;5.40;;;5.00;;
11173;SDS011;5643;50.856;12.088;2022-07-23T03:01:08;5.80;;;5.30;;
11173;SDS011;5643;50.856;12.088;2022-07-23T03:03:35;4.90;;;4.60;;
11173;SDS011;5643;50.856;12.088;2022-07-23T03:06:03;5.80;;;5.20;;
11173;SDS011;5643;50.856;12.088;2022-07-23T03:08:32;5.27;;;4.87;;
11173;SDS011;5643;50.856;12.088;2022-07-23T03:10:59;5.57;;;5.17;;
11173;SDS011;5643;50.856;12.088;2022-07-23T03:13:27;4.93;;;4.63;;
11173;SDS011;5643;50.856;12.088;2022-07-23T03:15:55;5.70;;;5.20;;
11173;SDS011;5643;50.856;12.088;2022-07-23T03:18:22;5.30;;;4.90;;
11173;SDS011;5643;50.856;12.088;2022-07-23T03:20:51;5.40;;;5.00;;
11173;SDS011;5643;50.856;12.088;2022-07-23T03:23:19;5.10;;;4.70;;
11173;SDS011;5643;50.856;12.088;2022-07-23T03:25:47;4.47;;;4.17;;
11173;SDS011;5643;50.856;12.088;2022-07-23T03:28:15;4.43;;;4.13;;
11173;SDS011;5643;50.856;12.088;2022-07-23T03:30:43;6.20;;;5.60;;
11173;SDS011;5643;50.856;12.088;2022-07-23T03:33:12;4.87;;;4.47;;
11173;SDS011;5643;50.856;12.088;2022-07-23T03:35:39;6.40;;;5.90;;
11173;SDS011;5643;50.856;12.088;2022-07-23T03:38:07;6.83;;;6.23;;
11173;SDS011;5643;50.856;12.088;2022-07-23T03:40:34;5.27;;;4.87;;
11173;SDS011;5643;50.856;12.088;2022-07-23T03:43:05;5.60;;;5.20;;
11173;SDS011;5643;50.856;12.088;2022-07-23T03:45:32;5.90;;;5.40;;
11173;SDS011;5643;50.856;12.088;2022-07-23T03:48:00;6.00;;;5.40;;
11173;SDS011;5643;50.856;12.088;2022-07-23T03:50:28;6.10;;;5.60;;
11173;SDS011;5643;50.856;12.088;2022-07-23T03:52:55;5.63;;;5.23;;
11173;SDS011;5643;50.856;12.088;2022-07-23T03:55:23;5.40;;;5.00;;
11173;SDS011;5643;50.856;12.088;2022-07-23T03:57:51;6.37;;;5.77;;
11173;SDS011;5643;50.856;12.088;2022-07-23T04:00:20;5.70;;;5.20;;
11173;SDS011;5643;50.856;12.088;2022-07-23T04:02:47;6.23;;;5.73;;
11173;SDS011;5643;50.856;12.088;2022-07-23T04:05:15;5.63;;;5.13;;
11173;SDS011;5643;50.856;12.088;2022-07-23T04:07:43;7.00;;;6.30;;
11173;SDS011;5643;50.856;12.088;2022-07-23T04:10:11;6.40;;;5.90;;
11173;SDS011;5643;50.856;12.088;2022-07-23T04:12:38;5.23;;;4.83;;
11173;SDS011;5643;50.856;12.088;2022-07-23T04:15:07;7.00;;;6.40;;
11173;SDS011;5643;50.856;12.088;2022-07-23T04:17:37;8.03;;;7.43;;
11173;SDS011;5643;50.856;12.088;2022-07-23T04:20:04;7.33;;;6.70;;
11173;SDS011;5643;50.856;12.088;2022-07-23T04:22:32;6.53;;;6.03;;
11173;SDS011;5643;50.856;12.088;2022-07-23T04:25:00;6.87;;;6.17;;
11173;SDS011;5643;50.856;12.088;2022-07-23T04:27:27;7.27;;;6.67;;
11173;SDS011;5643;50.856;12.088;2022-07-23T04:29:55;6.27;;;5.77;;
11173;SDS011;5643;50.856;12.088;2022-07-23T04:32:22;5.83;;;5.37;;
11173;SDS011;5643;50.856;12.088;2022-07-23T04:34:51;7.17;;;6.30;;
11173;SDS011;5643;50.856;12.088;2022-07-23T04:37:19;7.00;;;6.40;;
11173;SDS011;5643;50.856;12.088;2022-07-23T04:39:46;5.07;;;4.57;;
11173;SDS011;5643;50.856;12.088;2022-07-23T04:42:14;5.13;;;4.73;;
11173;SDS011;5643;50.856;12.088;2022-07-23T04:44:41;5.60;;;5.10;;
11173;SDS011;5643;50.856;12.088;2022-07-23T04:47:09;5.50;;;5.00;;
11173;SDS011;5643;50.856;12.088;2022-07-23T04:49:37;4.57;;;4.20;;
11173;SDS011;5643;50.856;12.088;2022-07-23T04:52:06;5.40;;;5.00;;
11173;SDS011;5643;50.856;12.088;2022-07-23T04:54:33;4.73;;;4.30;;
11173;SDS011;5643;50.856;12.088;2022-07-23T04:57:01;5.00;;;4.60;;
11173;SDS011;5643;50.856;12.088;2022-07-23T04:59:28;4.80;;;4.40;;
11173;SDS011;5643;50.856;12.088;2022-07-23T05:01:56;5.00;;;4.50;;
11173;SDS011;5643;50.856;12.088;2022-07-23T05:04:24;5.33;;;4.80;;
11173;SDS011;5643;50.856;12.088;2022-07-23T05:06:51;4.00;;;3.70;;
11173;SDS011;5643;50.856;12.088;2022-07-23T05:09:20;3.50;;;3.30;;
11173;SDS011;5643;50.856;12.088;2022-07-23T05:11:48;5.23;;;4.83;;
11173;SDS011;5643;50.856;12.088;2022-07-23T05:14:15;4.87;;;3.97;;
11173;SDS011;5643;50.856;12.088;2022-07-23T05:16:43;4.90;;;4.50;;
11173;SDS011;5643;50.856;12.088;2022-07-23T05:19:11;4.23;;;3.93;;
11173;SDS011;5643;50.856;12.088;2022-07-23T05:21:39;4.00;;;3.60;;
11173;SDS011;5643;50.856;12.088;2022-07-23T05:24:07;4.40;;;4.10;;
11173;SDS011;5643;50.856;12.088;2022-07-23T05:26:36;3.70;;;3.40;;
11173;SDS011;5643;50.856;12.088;2022-07-23T05:29:04;3.30;;;3.00;;
11173;SDS011;5643;50.856;12.088;2022-07-23T05:31:31;3.27;;;3.07;;
11173;SDS011;5643;50.856;12.088;2022-07-23T05:33:58;4.00;;;3.60;;
11173;SDS011;5643;50.856;12.088;2022-07-23T05:36:26;2.97;;;2.77;;
11173;SDS011;5643;50.856;12.088;2022-07-23T05:38:57;4.03;;;3.73;;
11173;SDS011;5643;50.856;12.088;2022-07-23T05:41:24;4.60;;;4.20;;
11173;SDS011;5643;50.856;12.088;2022-07-23T05:43:53;3.80;;;3.50;;
11173;SDS011;5643;50.856;12.088;2022-07-23T05:46:21;3.67;;;3.37;;
11173;SDS011;5643;50.856;12.088;2022-07-23T05:48:49;3.30;;;3.10;;
11173;SDS011;5643;50.856;12.088;2022-07-23T05:51:19;3.00;;;2.80;;
11173;SDS011;5643;50.856;12.088;2022-07-23T05:53:47;3.83;;;3.53;;
11173;SDS011;5643;50.856;12.088;2022-07-23T05:56:15;4.07;;;3.77;;
11173;SDS011;5643;50.856;12.088;2022-07-23T05:58:43;4.20;;;3.90;;
11173;SDS011;5643;50.856;12.088;2022-07-23T06:01:12;4.23;;;3.83;;
11173;SDS011;5643;50.856;12.088;2022-07-23T06:03:40;4.53;;;3.87;;
11173;SDS011;5643;50.856;12.088;2022-07-23T06:06:08;4.30;;;3.90;;
11173;SDS011;5643;50.856;12.088;2022-07-23T06:08:35;4.10;;;3.80;;
11173;SDS011;5643;50.856;12.088;2022-07-23T06:11:03;3.30;;;3.10;;
11173;SDS011;5643;50.856;12.088;2022-07-23T06:13:31;3.73;;;3.47;;
11173;SDS011;5643;50.856;12.088;2022-07-23T06:15:58;4.07;;;3.67;;
11173;SDS011;5643;50.856;12.088;2022-07-23T06:18:28;3.50;;;3.20;;
11173;SDS011;5643;50.856;12.088;2022-07-23T06:20:56;3.37;;;3.17;;
11173;SDS011;5643;50.856;12.088;2022-07-23T06:23:24;3.67;;;3.40;;
11173;SDS011;5643;50.856;12.088;2022-07-23T06:25:51;4.27;;;3.97;;
11173;SDS011;5643;50.856;12.088;2022-07-23T06:28:19;4.10;;;3.80;;
11173;SDS011;5643;50.856;12.088;2022-07-23T06:30:47;3.70;;;3.50;;
11173;SDS011;5643;50.856;12.088;2022-07-23T06:33:15;3.43;;;3.17;;
11173;SDS011;5643;50.856;12.088;2022-07-23T06:35:44;3.10;;;2.90;;
11173;SDS011;5643;50.856;12.088;2022-07-23T06:38:12;3.93;;;3.63;;
11173;SDS011;5643;50.856;12.088;2022-07-23T06:40:40;4.03;;;3.73;;
11173;SDS011;5643;50.856;12.088;2022-07-23T06:43:08;4.47;;;4.07;;
11173;SDS011;5643;50.856;12.088;2022-07-23T06:45:35;3.97;;;3.60;;
11173;SDS011;5643;50.856;12.088;2022-07-23T06:48:03;4.33;;;4.00;;
11173;SDS011;5643;50.856;12.088;2022-07-23T06:50:31;3.87;;;3.57;;
11173;SDS011;5643;50.856;12.088;2022-07-23T06:53:00;4.60;;;4.20;;
11173;SDS011;5643;50.856;12.088;2022-07-23T06:55:27;4.30;;;4.00;;
11173;SDS011;5643;50.856;12.088;2022-07-23T06:57:56;4.37;;;3.97;;
11173;SDS011;5643;50.856;12.088;2022-07-23T07:00:23;3.77;;;3.47;;
11173;SDS011;5643;50.856;12.088;2022-07-23T07:02:53;4.10;;;3.80;;
11173;SDS011;5643;50.856;12.088;2022-07-23T07:05:21;4.40;;;4.00;;
11173;SDS011;5643;50.856;12.088;2022-07-23T07:07:51;3.87;;;3.57;;
11173;SDS011;5643;50.856;12.088;2022-07-23T07:10:20;4.40;;;3.73;;
11173;SDS011;5643;50.856;12.088;2022-07-23T07:12:48;4.23;;;3.83;;
11173;SDS011;5643;50.856;12.088;2022-07-23T07:15:15;4.43;;;4.03;;
11173;SDS011;5643;50.856;12.088;2022-07-23T07:17:44;4.50;;;4.10;;
11173;SDS011;5643;50.856;12.088;2022-07-23T07:20:11;3.57;;;3.27;;
11173;SDS011;5643;50.856;12.088;2022-07-23T07:22:39;4.53;;;4.17;;
11173;SDS011;5643;50.856;12.088;2022-07-23T07:25:07;4.70;;;3.97;;
11173;SDS011;5643;50.856;12.088;2022-07-23T07:27:36;3.80;;;3.50;;
11173;SDS011;5643;50.856;12.088;2022-07-23T07:30:05;3.93;;;3.40;;
11173;SDS011;5643;50.856;12.088;2022-07-23T07:32:34;3.47;;;3.17;;
11173;SDS011;5643;50.856;12.088;2022-07-23T07:35:02;3.20;;;3.00;;
11173;SDS011;5643;50.856;12.088;2022-07-23T07:37:30;3.23;;;3.03;;
11173;SDS011;5643;50.856;12.088;2022-07-23T07:39:58;4.10;;;3.80;;
11173;SDS011;5643;50.856;12.088;2022-07-23T07:42:25;3.33;;;3.13;;
11173;SDS011;5643;50.856;12.088;2022-07-23T07:44:55;3.83;;;3.53;;
11173;SDS011;5643;50.856;12.088;2022-07-23T07:47:22;5.40;;;3.80;;
11173;SDS011;5643;50.856;12.088;2022-07-23T07:49:50;3.70;;;3.40;;
11173;SDS011;5643;50.856;12.088;2022-07-23T07:52:17;3.60;;;3.30;;
11173;SDS011;5643;50.856;12.088;2022-07-23T07:54:45;3.90;;;3.60;;
11173;SDS011;5643;50.856;12.088;2022-07-23T07:57:12;3.23;;;2.97;;
11173;SDS011;5643;50.856;12.088;2022-07-23T07:59:40;4.43;;;3.50;;
11173;SDS011;5643;50.856;12.088;2022-07-23T08:02:10;3.53;;;3.30;;
11173;SDS011;5643;50.856;12.088;2022-07-23T08:04:37;4.27;;;3.87;;
11173;SDS011;5643;50.856;12.088;2022-07-23T08:07:04;3.63;;;3.33;;
11173;SDS011;5643;50.856;12.088;2022-07-23T08:09:32;4.67;;;4.27;;
11173;SDS011;5643;50.856;12.088;2022-07-23T08:12:00;4.00;;;3.70;;
11173;SDS011;5643;50.856;12.088;2022-07-23T08:14:27;3.90;;;3.60;;
11173;SDS011;5643;50.856;12.088;2022-07-23T08:16:58;3.30;;;3.00;;
11173;SDS011;5643;50.856;12.088;2022-07-23T08:19:27;4.20;;;3.80;;
11173;SDS011;5643;50.856;12.088;2022-07-23T08:21:54;4.10;;;3.77;;
11173;SDS011;5643;50.856;12.088;2022-07-23T08:24:22;5.57;;;4.87;;
11173;SDS011;5643;50.856;12.088;2022-07-23T08:26:50;4.30;;;3.90;;
11173;SDS011;5643;50.856;12.088;2022-07-23T08:29:18;4.60;;;4.20;;
11173;SDS011;5643;50.856;12.088;2022-07-23T08:31:45;4.30;;;3.90;;
11173;SDS011;5643;50.856;12.088;2022-07-23T08:34:13;5.07;;;4.67;;
11173;SDS011;5643;50.856;12.088;2022-07-23T08:36:45;3.60;;;3.30;;
11173;SDS011;5643;50.856;12.088;2022-07-23T08:39:13;4.00;;;3.70;;
11173;SDS011;5643;50.856;12.088;2022-07-23T08:41:40;3.58;;;3.38;;
11173;SDS011;5643;50.856;12.088;2022-07-23T08:44:09;3.35;;;3.15;;
11173;SDS011;5643;50.856;12.088;2022-07-23T08:46:36;2.78;;;2.50;;
11173;SDS011;5643;50.856;12.088;2022-07-23T08:49:06;3.42;;;3.13;;
11173;SDS011;5643;50.856;12.088;2022-07-23T08:51:35;4.60;;;3.83;;
11173;SDS011;5643;50.856;12.088;2022-07-23T08:54:04;3.85;;;3.55;;
11173;SDS011;5643;50.856;12.088;2022-07-23T08:56:33;3.88;;;3.58;;
11173;SDS011;5643;50.856;12.088;2022-07-23T08:59:01;3.45;;;3.25;;
11173;SDS011;5643;50.856;12.088;2022-07-23T09:01:30;4.15;;;3.85;;
11173;SDS011;5643;50.856;12.088;2022-07-23T09:03:57;4.15;;;3.85;;
11173;SDS011;5643;50.856;12.088;2022-07-23T09:06:25;5.13;;;4.70;;
11173;SDS011;5643;50.856;12.088;2022-07-23T09:08:53;3.70;;;3.45;;
11173;SDS011;5643;50.856;12.088;2022-07-23T09:11:22;3.42;;;3.10;;
11173;SDS011;5643;50.856;12.088;2022-07-23T09:13:50;3.90;;;3.60;;
11173;SDS011;5643;50.856;12.088;2022-07-23T09:16:20;4.30;;;4.00;;
11173;SDS011;5643;50.856;12.088;2022-07-23T09:18:52;4.30;;;4.00;;
11173;SDS011;5643;50.856;12.088;2022-07-23T09:21:25;4.88;;;4.20;;
11173;SDS011;5643;50.856;12.088;2022-07-23T09:23:55;3.92;;;3.63;;
11173;SDS011;5643;50.856;12.088;2022-07-23T09:26:33;3.25;;;2.97;;
11173;SDS011;5643;50.856;12.088;2022-07-23T09:29:09;2.72;;;2.55;;
11173;SDS011;5643;50.856;12.088;2022-07-23T09:31:42;2.95;;;2.75;;
11173;SDS011;5643;50.856;12.088;2022-07-23T09:34:20;3.28;;;3.08;;
11173;SDS011;5643;50.856;12.088;2022-07-23T09:36:48;3.90;;;3.60;;
11173;SDS011;5643;50.856;12.088;2022-07-23T09:39:22;3.55;;;3.35;;
11173;SDS011;5643;50.856;12.088;2022-07-23T09:41:55;3.80;;;3.50;;
11173;SDS011;5643;50.856;12.088;2022-07-23T09:44:23;4.63;;;4.28;;
11173;SDS011;5643;50.856;12.088;2022-07-23T09:46:50;3.67;;;3.38;;
11173;SDS011;5643;50.856;12.088;2022-07-23T09:49:26;4.15;;;3.85;;
11173;SDS011;5643;50.856;12.088;2022-07-23T09:51:55;3.90;;;3.60;;
11173;SDS011;5643;50.856;12.088;2022-07-23T09:54:25;4.85;;;4.40;;
11173;SDS011;5643;50.856;12.088;2022-07-23T09:56:58;4.60;;;4.20;;
11173;SDS011;5643;50.856;12.088;2022-07-23T09:59:27;5.15;;;4.65;;
11173;SDS011;5643;50.856;12.088;2022-07-23T10:01:59;4.75;;;4.30;;
11173;SDS011;5643;50.856;12.088;2022-07-23T10:04:31;5.00;;;4.60;;
11173;SDS011;5643;50.856;12.088;2022-07-23T10:06:59;5.25;;;4.78;;
11173;SDS011;5643;50.856;12.088;2022-07-23T10:09:30;6.28;;;5.50;;
11173;SDS011;5643;50.856;12.088;2022-07-23T10:12:01;6.20;;;5.70;;
11173;SDS011;5643;50.856;12.088;2022-07-23T10:14:41;6.38;;;5.88;;
11173;SDS011;5643;50.856;12.088;2022-07-23T10:17:10;6.10;;;5.60;;
11173;SDS011;5643;50.856;12.088;2022-07-23T10:19:38;5.95;;;5.55;;
11173;SDS011;5643;50.856;12.088;2022-07-23T10:22:07;6.75;;;6.25;;
11173;SDS011;5643;50.856;12.088;2022-07-23T10:24:40;6.40;;;5.97;;
11173;SDS011;5643;50.856;12.088;2022-07-23T10:27:34;6.85;;;6.32;;
11173;SDS011;5643;50.856;12.088;2022-07-23T10:30:28;6.28;;;5.88;;
11173;SDS011;5643;50.856;12.088;2022-07-23T10:33:12;6.95;;;6.38;;
11173;SDS011;5643;50.856;12.088;2022-07-23T10:35:55;6.18;;;5.68;;
11173;SDS011;5643;50.856;12.088;2022-07-23T10:38:30;6.47;;;5.95;;
11173;SDS011;5643;50.856;12.088;2022-07-23T10:41:01;5.90;;;5.40;;
11173;SDS011;5643;50.856;12.088;2022-07-23T10:43:31;7.00;;;6.50;;
11173;SDS011;5643;50.856;12.088;2022-07-23T10:54:45;6.70;;;6.20;;
11173;SDS011;5643;50.856;12.088;2022-07-23T10:57:15;6.53;;;6.10;;
11173;SDS011;5643;50.856;12.088;2022-07-23T11:02:50;6.60;;;6.03;;
11173;SDS011;5643;50.856;12.088;2022-07-23T11:05:20;6.13;;;5.63;;
11173;SDS011;5643;50.856;12.088;2022-07-23T11:10:41;7.18;;;6.63;;
11173;SDS011;5643;50.856;12.088;2022-07-23T11:13:27;7.60;;;7.10;;
11173;SDS011;5643;50.856;12.088;2022-07-23T11:16:12;10.30;;;9.45;;
11173;SDS011;5643;50.856;12.088;2022-07-23T11:19:02;12.20;;;11.20;;
11173;SDS011;5643;50.856;12.088;2022-07-23T11:21:43;12.43;;;11.43;;
11173;SDS011;5643;50.856;12.088;2022-07-23T11:24:13;13.30;;;12.25;;
11173;SDS011;5643;50.856;12.088;2022-07-23T11:26:59;12.05;;;11.15;;
11173;SDS011;5643;50.856;12.088;2022-07-23T11:32:28;12.45;;;11.45;;
11173;SDS011;5643;50.856;12.088;2022-07-23T11:35:01;12.35;;;11.35;;
11173;SDS011;5643;50.856;12.088;2022-07-23T11:37:33;11.40;;;10.60;;
11173;SDS011;5643;50.856;12.088;2022-07-23T11:40:04;11.80;;;10.82;;
11173;SDS011;5643;50.856;12.088;2022-07-23T11:42:37;11.07;;;10.25;;
11173;SDS011;5643;50.856;12.088;2022-07-23T11:45:07;9.60;;;8.90;;
11173;SDS011;5643;50.856;12.088;2022-07-23T11:47:37;10.20;;;9.40;;
11173;SDS011;5643;50.856;12.088;2022-07-23T11:50:05;10.38;;;9.60;;
11173;SDS011;5643;50.856;12.088;2022-07-23T11:52:34;9.70;;;8.80;;
11173;SDS011;5643;50.856;12.088;2022-07-23T11:55:03;10.25;;;9.45;;
11173;SDS011;5643;50.856;12.088;2022-07-23T11:57:32;11.18;;;10.27;;
11173;SDS011;5643;50.856;12.088;2022-07-23T12:00:03;8.20;;;7.60;;
11173;SDS011;5643;50.856;12.088;2022-07-23T12:02:33;8.70;;;8.10;;
11173;SDS011;5643;50.856;12.088;2022-07-23T12:05:02;8.07;;;7.45;;
11173;SDS011;5643;50.856;12.088;2022-07-23T12:07:31;7.38;;;6.78;;
11173;SDS011;5643;50.856;12.088;2022-07-23T12:10:00;8.27;;;7.72;;
11173;SDS011;5643;50.856;12.088;2022-07-23T12:12:34;7.88;;;7.28;;
11173;SDS011;5643;50.856;12.088;2022-07-23T12:15:03;6.63;;;6.13;;
11173;SDS011;5643;50.856;12.088;2022-07-23T12:17:33;6.85;;;6.35;;
11173;SDS011;5643;50.856;12.088;2022-07-23T12:20:03;8.18;;;7.47;;
11173;SDS011;5643;50.856;12.088;2022-07-23T12:22:34;8.20;;;7.63;;
11173;SDS011;5643;50.856;12.088;2022-07-23T12:25:03;7.82;;;7.22;;
11173;SDS011;5643;50.856;12.088;2022-07-23T12:27:33;7.72;;;6.90;;
11173;SDS011;5643;50.856;12.088;2022-07-23T12:30:17;6.93;;;6.40;;
11173;SDS011;5643;50.856;12.088;2022-07-23T12:32:46;6.70;;;6.30;;
11173;SDS011;5643;50.856;12.088;2022-07-23T12:35:16;6.70;;;6.20;;
11173;SDS011;5643;50.856;12.088;2022-07-23T12:37:45;5.32;;;5.03;;
11173;SDS011;5643;50.856;12.088;2022-07-23T12:40:23;7.05;;;6.47;;
11173;SDS011;5643;50.856;12.088;2022-07-23T12:42:53;6.90;;;6.40;;
11173;SDS011;5643;50.856;12.088;2022-07-23T12:45:23;7.05;;;6.55;;
11173;SDS011;5643;50.856;12.088;2022-07-23T12:47:59;7.00;;;6.50;;
11173;SDS011;5643;50.856;12.088;2022-07-23T12:50:38;7.90;;;7.30;;
11173;SDS011;5643;50.856;12.088;2022-07-23T12:53:09;7.38;;;6.78;;
11173;SDS011;5643;50.856;12.088;2022-07-23T12:55:38;7.63;;;7.07;;
11173;SDS011;5643;50.856;12.088;2022-07-23T12:58:08;6.82;;;6.32;;
11173;SDS011;5643;50.856;12.088;2022-07-23T13:01:01;6.28;;;5.88;;
11173;SDS011;5643;50.856;12.088;2022-07-23T13:03:32;6.60;;;6.10;;
11173;SDS011;5643;50.856;12.088;2022-07-23T13:06:05;6.93;;;6.43;;
11173;SDS011;5643;50.856;12.088;2022-07-23T13:08:34;7.18;;;6.68;;
11173;SDS011;5643;50.856;12.088;2022-07-23T13:11:04;6.75;;;6.35;;
11173;SDS011;5643;50.856;12.088;2022-07-23T13:13:33;7.30;;;6.80;;
11173;SDS011;5643;50.856;12.088;2022-07-23T13:16:02;7.63;;;7.13;;
11173;SDS011;5643;50.856;12.088;2022-07-23T13:18:30;7.65;;;7.15;;
11173;SDS011;5643;50.856;12.088;2022-07-23T13:20:58;6.78;;;6.28;;
11173;SDS011;5643;50.856;12.088;2022-07-23T13:23:28;8.45;;;7.85;;
11173;SDS011;5643;50.856;12.088;2022-07-23T13:25:55;8.95;;;8.35;;
11173;SDS011;5643;50.856;12.088;2022-07-23T13:28:23;9.00;;;8.35;;
11173;SDS011;5643;50.856;12.088;2022-07-23T13:30:51;8.50;;;7.90;;
11173;SDS011;5643;50.856;12.088;2022-07-23T13:33:19;8.10;;;7.60;;
11173;SDS011;5643;50.856;12.088;2022-07-23T13:35:48;9.60;;;8.90;;
11173;SDS011;5643;50.856;12.088;2022-07-23T13:38:17;9.95;;;9.15;;
11173;SDS011;5643;50.856;12.088;2022-07-23T13:40:49;8.73;;;8.10;;
11173;SDS011;5643;50.856;12.088;2022-07-23T13:43:17;8.45;;;7.85;;
11173;SDS011;5643;50.856;12.088;2022-07-23T13:45:46;8.30;;;7.70;;
11173;SDS011;5643;50.856;12.088;2022-07-23T13:48:18;7.70;;;7.20;;
11173;SDS011;5643;50.856;12.088;2022-07-23T13:50:46;8.40;;;7.70;;
11173;SDS011;5643;50.856;12.088;2022-07-23T13:53:15;8.43;;;7.82;;
11173;SDS011;5643;50.856;12.088;2022-07-23T13:55:45;8.57;;;7.93;;
11173;SDS011;5643;50.856;12.088;2022-07-23T13:58:14;7.97;;;7.47;;
11173;SDS011;5643;50.856;12.088;2022-07-23T14:00:44;8.30;;;7.70;;
11173;SDS011;5643;50.856;12.088;2022-07-23T14:03:13;8.50;;;7.90;;
11173;SDS011;5643;50.856;12.088;2022-07-23T14:05:41;7.38;;;6.78;;
11173;SDS011;5643;50.856;12.088;2022-07-23T14:08:09;7.07;;;6.57;;
11173;SDS011;5643;50.856;12.088;2022-07-23T14:10:37;8.23;;;7.63;;
11173;SDS011;5643;50.856;12.088;2022-07-23T14:13:05;8.02;;;7.50;;
11173;SDS011;5643;50.856;12.088;2022-07-23T14:15:34;6.97;;;6.47;;
11173;SDS011;5643;50.856;12.088;2022-07-23T14:18:02;7.50;;;6.90;;
11173;SDS011;5643;50.856;12.088;2022-07-23T14:20:30;7.53;;;6.85;;
11173;SDS011;5643;50.856;12.088;2022-07-23T14:22:58;6.18;;;5.78;;
11173;SDS011;5643;50.856;12.088;2022-07-23T14:25:26;6.50;;;6.10;;
11173;SDS011;5643;50.856;12.088;2022-07-23T14:27:54;6.90;;;6.40;;
11173;SDS011;5643;50.856;12.088;2022-07-23T14:30:22;6.88;;;6.38;;
11173;SDS011;5643;50.856;12.088;2022-07-23T14:32:51;6.57;;;6.07;;
11173;SDS011;5643;50.856;12.088;2022-07-23T14:35:19;6.47;;;5.97;;
11173;SDS011;5643;50.856;12.088;2022-07-23T14:37:46;6.28;;;5.78;;
11173;SDS011;5643;50.856;12.088;2022-07-23T14:40:15;6.00;;;5.60;;
11173;SDS011;5643;50.856;12.088;2022-07-23T14:42:46;6.30;;;5.90;;
11173;SDS011;5643;50.856;12.088;2022-07-23T14:45:13;6.03;;;5.63;;
11173;SDS011;5643;50.856;12.088;2022-07-23T14:47:41;6.25;;;5.75;;
11173;SDS011;5643;50.856;12.088;2022-07-23T14:50:10;5.78;;;5.38;;
11173;SDS011;5643;50.856;12.088;2022-07-23T14:52:40;5.60;;;5.20;;
11173;SDS011;5643;50.856;12.088;2022-07-23T14:55:08;5.45;;;5.05;;
11173;SDS011;5643;50.856;12.088;2022-07-23T14:57:36;5.07;;;4.72;;
11173;SDS011;5643;50.856;12.088;2022-07-23T15:00:04;5.90;;;5.50;;
11173;SDS011;5643;50.856;12.088;2022-07-23T15:02:33;5.32;;;4.93;;
11173;SDS011;5643;50.856;12.088;2022-07-23T15:05:01;5.40;;;5.05;;
11173;SDS011;5643;50.856;12.088;2022-07-23T15:07:30;5.72;;;5.25;;
11173;SDS011;5643;50.856;12.088;2022-07-23T15:09:58;31.40;;;28.30;;
11173;SDS011;5643;50.856;12.088;2022-07-23T15:12:25;8.40;;;7.70;;
11173;SDS011;5643;50.856;12.088;2022-07-23T15:14:53;6.18;;;5.68;;